sensor_id;sensor_type;location;lat;lon;timestamp;pressure;altitude;pressure_sealevel;temperature;humidity
43071;BME280;36278;47.952;21.714;2023-03-01T00:01:17;101462.28;;;3.11;67.30
43071;BME280;36278;47.952;21.714;2023-03-01T00:03:43;101451.00;;;3.07;67.96
43071;BME280;36278;47.952;21.714;2023-03-01T00:06:09;101455.63;;;2.98;68.06
43071;BME280;36278;47.952;21.714;2023-03-01T00:08:35;101458.81;;;3.11;67.98
43071;BME280;36278;47.952;21.714;2023-03-01T00:13:27;101458.81;;;3.11;68.08
43071;BME280;36278;47.952;21.714;2023-03-01T00:15:52;101458.16;;;3.01;68.15
43071;BME280;36278;47.952;21.714;2023-03-01T00:18:18;101448.78;;;2.94;68.25
43071;BME280;36278;47.952;21.714;2023-03-01T00:20:51;101449.88;;;2.85;68.73
43071;BME280;36278;47.952;21.714;2023-03-01T00:23:17;101445.25;;;2.95;68.22
43071;BME280;36278;47.952;21.714;2023-03-01T00:25:43;101449.31;;;3.06;67.42
43071;BME280;36278;47.952;21.714;2023-03-01T00:28:08;101437.31;;;2.98;67.82
43071;BME280;36278;47.952;21.714;2023-03-01T00:30:34;101450.75;;;2.86;68.51
43071;BME280;36278;47.952;21.714;2023-03-01T00:32:59;101449.00;;;2.85;68.62
43071;BME280;36278;47.952;21.714;2023-03-01T00:35:25;101437.88;;;2.76;69.17
43071;BME280;36278;47.952;21.714;2023-03-01T00:37:50;101441.44;;;2.74;68.71
43071;BME280;36278;47.952;21.714;2023-03-01T00:40:27;101446.66;;;2.74;68.85
43071;BME280;36278;47.952;21.714;2023-03-01T00:42:53;101432.06;;;2.65;69.81
43071;BME280;36278;47.952;21.714;2023-03-01T00:45:18;101430.19;;;2.70;69.05
43071;BME280;36278;47.952;21.714;2023-03-01T00:47:44;101433.56;;;2.74;68.95
43071;BME280;36278;47.952;21.714;2023-03-01T00:50:11;101425.88;;;2.68;68.83
43071;BME280;36278;47.952;21.714;2023-03-01T00:52:37;101432.84;;;2.69;68.67
43071;BME280;36278;47.952;21.714;2023-03-01T00:55:04;101439.84;;;2.67;68.89
43071;BME280;36278;47.952;21.714;2023-03-01T00:57:30;101436.47;;;2.63;69.98
43071;BME280;36278;47.952;21.714;2023-03-01T00:59:56;101442.41;;;2.70;69.16
43071;BME280;36278;47.952;21.714;2023-03-01T01:02:22;101450.31;;;2.67;69.60
43071;BME280;36278;47.952;21.714;2023-03-01T01:04:47;101445.28;;;2.59;70.34
43071;BME280;36278;47.952;21.714;2023-03-01T01:07:13;101445.31;;;2.58;70.00
43071;BME280;36278;47.952;21.714;2023-03-01T01:09:39;101451.94;;;2.72;69.80
43071;BME280;36278;47.952;21.714;2023-03-01T01:12:05;101451.00;;;2.75;69.00
43071;BME280;36278;47.952;21.714;2023-03-01T01:14:31;101455.56;;;2.67;70.44
43071;BME280;36278;47.952;21.714;2023-03-01T01:16:57;101448.56;;;2.69;70.26
43071;BME280;36278;47.952;21.714;2023-03-01T01:19:23;101451.94;;;2.72;69.27
43071;BME280;36278;47.952;21.714;2023-03-01T01:21:49;101449.47;;;2.66;69.65
43071;BME280;36278;47.952;21.714;2023-03-01T01:24:15;101450.19;;;2.73;69.53
43071;BME280;36278;47.952;21.714;2023-03-01T01:26:41;101445.03;;;2.70;70.47
43071;BME280;36278;47.952;21.714;2023-03-01T01:29:07;101433.81;;;2.65;70.05
43071;BME280;36278;47.952;21.714;2023-03-01T01:31:34;101433.03;;;2.61;70.28
43071;BME280;36278;47.952;21.714;2023-03-01T01:34:02;101440.03;;;2.61;70.06
43071;BME280;36278;47.952;21.714;2023-03-01T01:36:28;101433.91;;;2.60;69.61
43071;BME280;36278;47.952;21.714;2023-03-01T01:38:54;101433.97;;;2.59;70.98
43071;BME280;36278;47.952;21.714;2023-03-01T01:41:20;101438.91;;;2.71;69.96
43071;BME280;36278;47.952;21.714;2023-03-01T01:44:19;101443.19;;;2.73;69.73
43071;BME280;36278;47.952;21.714;2023-03-01T01:46:58;101444.28;;;2.65;69.34
43071;BME280;36278;47.952;21.714;2023-03-01T01:52:03;101437.06;;;2.74;69.77
43071;BME280;36278;47.952;21.714;2023-03-01T01:55:28;101439.91;;;2.65;69.55
43071;BME280;36278;47.952;21.714;2023-03-01T01:57:36;101434.56;;;2.70;69.95
43071;BME280;36278;47.952;21.714;2023-03-01T02:00:10;101429.09;;;2.79;68.98
43071;BME280;36278;47.952;21.714;2023-03-01T02:02:38;101430.97;;;2.74;69.02
43071;BME280;36278;47.952;21.714;2023-03-01T02:07:45;101428.53;;;2.66;69.39
43071;BME280;36278;47.952;21.714;2023-03-01T02:10:11;101428.72;;;2.59;69.24
43071;BME280;36278;47.952;21.714;2023-03-01T02:12:38;101424.53;;;2.51;70.14
43071;BME280;36278;47.952;21.714;2023-03-01T02:15:05;101427.88;;;2.58;68.63
43071;BME280;36278;47.952;21.714;2023-03-01T02:17:31;101431.28;;;2.62;69.42
43071;BME280;36278;47.952;21.714;2023-03-01T02:20:16;101414.59;;;2.66;68.66
43071;BME280;36278;47.952;21.714;2023-03-01T02:22:46;101413.03;;;2.59;68.45
43071;BME280;36278;47.952;21.714;2023-03-01T02:30:45;101410.66;;;2.49;69.43
43071;BME280;36278;47.952;21.714;2023-03-01T02:33:31;101410.97;;;2.37;69.53
43071;BME280;36278;47.952;21.714;2023-03-01T02:35:59;101404.22;;;2.27;70.12
43071;BME280;36278;47.952;21.714;2023-03-01T02:38:26;101401.50;;;2.32;69.92
43071;BME280;36278;47.952;21.714;2023-03-01T02:40:51;101407.19;;;2.49;68.47
43071;BME280;36278;47.952;21.714;2023-03-01T02:43:19;101406.63;;;2.36;69.30
43071;BME280;36278;47.952;21.714;2023-03-01T02:45:52;101409.03;;;2.45;68.65
43071;BME280;36278;47.952;21.714;2023-03-01T02:48:19;101420.59;;;2.35;68.79
43071;BME280;36278;47.952;21.714;2023-03-01T02:51:15;101407.72;;;2.26;69.82
43071;BME280;36278;47.952;21.714;2023-03-01T02:56:35;101417.84;;;2.04;70.71
43071;BME280;36278;47.952;21.714;2023-03-01T02:59:01;101399.44;;;2.09;70.51
43071;BME280;36278;47.952;21.714;2023-03-01T03:01:29;101408.22;;;2.06;70.50
43071;BME280;36278;47.952;21.714;2023-03-01T03:04:06;101417.69;;;2.10;70.63
43071;BME280;36278;47.952;21.714;2023-03-01T03:06:33;101415.03;;;2.13;70.12
43071;BME280;36278;47.952;21.714;2023-03-01T03:08:59;101415.06;;;2.12;69.86
43071;BME280;36278;47.952;21.714;2023-03-01T03:11:25;101412.47;;;2.10;70.82
43071;BME280;36278;47.952;21.714;2023-03-01T03:13:50;101403.00;;;2.06;69.92
43071;BME280;36278;47.952;21.714;2023-03-01T03:16:17;101411.56;;;2.11;70.13
43071;BME280;36278;47.952;21.714;2023-03-01T03:18:43;101398.31;;;2.20;69.54
43071;BME280;36278;47.952;21.714;2023-03-01T03:21:10;101402.69;;;2.20;70.12
43071;BME280;36278;47.952;21.714;2023-03-01T03:23:36;101406.19;;;2.17;71.01
43071;BME280;36278;47.952;21.714;2023-03-01T03:26:02;101403.72;;;2.11;70.61
43071;BME280;36278;47.952;21.714;2023-03-01T03:28:33;101402.09;;;2.07;70.91
43071;BME280;36278;47.952;21.714;2023-03-01T03:30:59;101401.97;;;2.13;70.18
43071;BME280;36278;47.952;21.714;2023-03-01T03:33:29;101396.06;;;2.05;70.67
43071;BME280;36278;47.952;21.714;2023-03-01T03:35:55;101396.16;;;2.01;70.73
43071;BME280;36278;47.952;21.714;2023-03-01T03:38:20;101401.22;;;2.07;70.88
43071;BME280;36278;47.952;21.714;2023-03-01T03:40:52;101397.81;;;2.05;70.71
43071;BME280;36278;47.952;21.714;2023-03-01T03:43:26;101401.06;;;2.14;70.12
43071;BME280;36278;47.952;21.714;2023-03-01T03:45:51;101405.69;;;2.02;71.01
43071;BME280;36278;47.952;21.714;2023-03-01T03:48:18;101403.25;;;1.95;71.27
43071;BME280;36278;47.952;21.714;2023-03-01T03:50:49;101407.44;;;2.01;71.26
43071;BME280;36278;47.952;21.714;2023-03-01T03:53:14;101407.41;;;2.03;71.35
43071;BME280;36278;47.952;21.714;2023-03-01T03:55:40;101415.63;;;1.87;72.32
43071;BME280;36278;47.952;21.714;2023-03-01T03:58:08;101414.72;;;1.87;72.26
43071;BME280;36278;47.952;21.714;2023-03-01T04:00:42;101415.16;;;2.07;70.70
43071;BME280;36278;47.952;21.714;2023-03-01T04:03:09;101415.06;;;2.12;70.72
43071;BME280;36278;47.952;21.714;2023-03-01T04:05:35;101417.81;;;2.06;71.17
43071;BME280;36278;47.952;21.714;2023-03-01T04:08:01;101417.56;;;2.16;71.19
43071;BME280;36278;47.952;21.714;2023-03-01T04:10:32;101416.59;;;2.20;70.43
43071;BME280;36278;47.952;21.714;2023-03-01T04:12:58;101415.06;;;2.12;70.86
43071;BME280;36278;47.952;21.714;2023-03-01T04:15:25;101413.53;;;2.02;71.04
43071;BME280;36278;47.952;21.714;2023-03-01T04:17:52;101416.16;;;2.02;71.73
43071;BME280;36278;47.952;21.714;2023-03-01T04:20:24;101398.63;;;2.07;70.59
43071;BME280;36278;47.952;21.714;2023-03-01T04:22:52;101411.38;;;2.19;70.33
43071;BME280;36278;47.952;21.714;2023-03-01T04:25:18;101403.63;;;2.16;71.63
43071;BME280;36278;47.952;21.714;2023-03-01T04:27:43;101401.09;;;2.11;71.45
43071;BME280;36278;47.952;21.714;2023-03-01T04:30:09;101411.59;;;2.10;71.86
43071;BME280;36278;47.952;21.714;2023-03-01T04:32:35;101408.81;;;2.17;70.75
43071;BME280;36278;47.952;21.714;2023-03-01T04:35:01;101410.44;;;2.23;70.91
43071;BME280;36278;47.952;21.714;2023-03-01T04:37:27;101404.47;;;2.16;71.26
43071;BME280;36278;47.952;21.714;2023-03-01T04:39:52;101408.09;;;2.12;71.44
43071;BME280;36278;47.952;21.714;2023-03-01T04:42:18;101406.16;;;2.19;71.06
43071;BME280;36278;47.952;21.714;2023-03-01T04:44:44;101408.81;;;2.17;70.93
43071;BME280;36278;47.952;21.714;2023-03-01T04:47:11;101410.47;;;2.21;70.42
43071;BME280;36278;47.952;21.714;2023-03-01T04:49:36;101406.59;;;2.38;70.61
43071;BME280;36278;47.952;21.714;2023-03-01T04:52:02;101402.13;;;2.41;70.28
43071;BME280;36278;47.952;21.714;2023-03-01T04:54:29;101391.81;;;2.35;70.39
43071;BME280;36278;47.952;21.714;2023-03-01T04:56:54;101400.50;;;2.37;70.37
43071;BME280;36278;47.952;21.714;2023-03-01T04:59:20;101389.91;;;2.42;69.97
43071;BME280;36278;47.952;21.714;2023-03-01T05:01:48;101391.28;;;2.57;69.80
43071;BME280;36278;47.952;21.714;2023-03-01T05:04:14;101382.94;;;2.42;70.40
43071;BME280;36278;47.952;21.714;2023-03-01T05:06:40;101386.03;;;2.58;69.49
43071;BME280;36278;47.952;21.714;2023-03-01T05:09:06;101381.66;;;2.59;70.26
43071;BME280;36278;47.952;21.714;2023-03-01T05:11:32;101378.47;;;2.47;69.73
43071;BME280;36278;47.952;21.714;2023-03-01T05:14:04;101385.59;;;2.41;69.94
43071;BME280;36278;47.952;21.714;2023-03-01T05:16:30;101383.72;;;2.46;69.79
43071;BME280;36278;47.952;21.714;2023-03-01T05:18:56;101394.38;;;2.38;70.13
43071;BME280;36278;47.952;21.714;2023-03-01T05:21:22;101399.16;;;2.21;71.30
43071;BME280;36278;47.952;21.714;2023-03-01T05:23:48;101400.91;;;2.20;70.98
43071;BME280;36278;47.952;21.714;2023-03-01T05:26:14;101407.69;;;2.29;70.99
43071;BME280;36278;47.952;21.714;2023-03-01T05:28:40;101412.78;;;2.34;70.62
43071;BME280;36278;47.952;21.714;2023-03-01T05:31:05;101405.78;;;2.34;70.63
43071;BME280;36278;47.952;21.714;2023-03-01T05:33:38;101421.44;;;2.36;71.04
43071;BME280;36278;47.952;21.714;2023-03-01T05:36:05;101420.97;;;2.20;71.39
43071;BME280;36278;47.952;21.714;2023-03-01T05:38:31;101417.41;;;2.22;71.03
43071;BME280;36278;47.952;21.714;2023-03-01T05:40:57;101418.50;;;2.14;70.55
43071;BME280;36278;47.952;21.714;2023-03-01T05:43:22;101422.78;;;2.16;71.05
43071;BME280;36278;47.952;21.714;2023-03-01T05:45:48;101423.81;;;2.09;72.20
43071;BME280;36278;47.952;21.714;2023-03-01T05:48:13;101421.06;;;2.15;71.20
43071;BME280;36278;47.952;21.714;2023-03-01T05:50:43;101418.31;;;2.21;71.22
43071;BME280;36278;47.952;21.714;2023-03-01T05:53:17;101415.34;;;2.37;71.25
43071;BME280;36278;47.952;21.714;2023-03-01T05:55:45;101410.97;;;2.37;69.82
43071;BME280;36278;47.952;21.714;2023-03-01T05:58:15;101413.44;;;2.42;70.42
43071;BME280;36278;47.952;21.714;2023-03-01T06:00:41;101414.84;;;2.19;71.24
43071;BME280;36278;47.952;21.714;2023-03-01T06:03:10;101404.31;;;2.24;71.61
43071;BME280;36278;47.952;21.714;2023-03-01T06:05:36;101414.50;;;2.35;71.15
43071;BME280;36278;47.952;21.714;2023-03-01T06:08:02;101409.97;;;2.41;70.64
43071;BME280;36278;47.952;21.714;2023-03-01T06:10:28;101413.44;;;2.42;70.29
43071;BME280;36278;47.952;21.714;2023-03-01T06:12:54;101413.41;;;2.45;70.04
43071;BME280;36278;47.952;21.714;2023-03-01T06:15:20;101412.56;;;2.43;69.70
43071;BME280;36278;47.952;21.714;2023-03-01T06:17:45;101407.03;;;2.55;69.44
43071;BME280;36278;47.952;21.714;2023-03-01T06:20:23;101409.13;;;2.41;69.31
43071;BME280;36278;47.952;21.714;2023-03-01T06:22:49;101401.81;;;2.55;68.30
43071;BME280;36278;47.952;21.714;2023-03-01T06:25:21;101403.66;;;2.50;68.31
43071;BME280;36278;47.952;21.714;2023-03-01T06:27:47;101405.31;;;2.54;68.63
43071;BME280;36278;47.952;21.714;2023-03-01T06:30:15;101399.34;;;2.49;68.15
43071;BME280;36278;47.952;21.714;2023-03-01T06:32:42;101405.50;;;2.46;67.86
43071;BME280;36278;47.952;21.714;2023-03-01T06:35:09;101395.66;;;2.56;68.14
43071;BME280;36278;47.952;21.714;2023-03-01T06:37:35;101397.28;;;2.60;67.91
43071;BME280;36278;47.952;21.714;2023-03-01T06:40:02;101400.66;;;2.65;67.46
43071;BME280;36278;47.952;21.714;2023-03-01T06:42:36;101397.91;;;2.71;67.25
43071;BME280;36278;47.952;21.714;2023-03-01T06:45:03;101396.03;;;2.75;67.29
43071;BME280;36278;47.952;21.714;2023-03-01T06:47:28;101393.91;;;2.57;66.57
43071;BME280;36278;47.952;21.714;2023-03-01T06:49:54;101404.88;;;2.71;68.02
43071;BME280;36278;47.952;21.714;2023-03-01T06:52:19;101410.81;;;2.77;66.91
43071;BME280;36278;47.952;21.714;2023-03-01T06:54:44;101412.84;;;2.99;65.56
43071;BME280;36278;47.952;21.714;2023-03-01T06:57:10;101409.31;;;3.01;65.87
43071;BME280;36278;47.952;21.714;2023-03-01T06:59:35;101412.19;;;2.91;66.32
43071;BME280;36278;47.952;21.714;2023-03-01T07:02:01;101407.50;;;3.03;65.54
43071;BME280;36278;47.952;21.714;2023-03-01T07:04:26;101397.09;;;3.02;65.54
43071;BME280;36278;47.952;21.714;2023-03-01T07:06:54;101396.44;;;2.94;65.23
43071;BME280;36278;47.952;21.714;2023-03-01T07:09:24;101396.03;;;3.07;65.26
43071;BME280;36278;47.952;21.714;2023-03-01T07:11:49;101395.03;;;3.13;64.64
43071;BME280;36278;47.952;21.714;2023-03-01T07:14:16;101384.38;;;3.19;65.93
43071;BME280;36278;47.952;21.714;2023-03-01T07:16:42;101385.78;;;3.31;64.78
43071;BME280;36278;47.952;21.714;2023-03-01T07:19:07;101390.34;;;3.24;64.11
43071;BME280;36278;47.952;21.714;2023-03-01T07:21:33;101387.22;;;3.41;64.25
43071;BME280;36278;47.952;21.714;2023-03-01T07:23:58;101381.88;;;3.46;64.26
43071;BME280;36278;47.952;21.714;2023-03-01T07:26:24;101377.28;;;3.54;64.49
43071;BME280;36278;47.952;21.714;2023-03-01T07:28:49;101382.78;;;3.45;64.54
43071;BME280;36278;47.952;21.714;2023-03-01T07:31:15;101380.91;;;3.48;64.38
43071;BME280;36278;47.952;21.714;2023-03-01T07:33:41;101386.09;;;3.50;64.18
43071;BME280;36278;47.952;21.714;2023-03-01T07:36:07;101382.00;;;3.41;64.60
43071;BME280;36278;47.952;21.714;2023-03-01T07:38:33;101383.38;;;3.54;63.84
43071;BME280;36278;47.952;21.714;2023-03-01T07:41:00;101375.38;;;3.59;63.31
43071;BME280;36278;47.952;21.714;2023-03-01T07:43:30;101376.91;;;3.36;64.41
43071;BME280;36278;47.952;21.714;2023-03-01T07:45:59;101370.28;;;3.23;64.89
43071;BME280;36278;47.952;21.714;2023-03-01T07:48:25;101374.13;;;3.43;64.60
43071;BME280;36278;47.952;21.714;2023-03-01T07:50:51;101366.06;;;3.49;64.48
43071;BME280;36278;47.952;21.714;2023-03-01T07:53:16;101368.59;;;3.52;64.70
43071;BME280;36278;47.952;21.714;2023-03-01T07:55:42;101374.09;;;3.72;63.85
43071;BME280;36278;47.952;21.714;2023-03-01T07:58:08;101368.44;;;3.86;63.66
43071;BME280;36278;47.952;21.714;2023-03-01T08:00:33;101370.28;;;4.10;62.17
43071;BME280;36278;47.952;21.714;2023-03-01T08:03:00;101372.09;;;4.35;61.49
43071;BME280;36278;47.952;21.714;2023-03-01T08:05:26;101382.28;;;4.44;61.78
43071;BME280;36278;47.952;21.714;2023-03-01T08:07:52;101383.44;;;4.62;60.68
43071;BME280;36278;47.952;21.714;2023-03-01T08:10:18;101380.56;;;4.69;60.93
43071;BME280;36278;47.952;21.714;2023-03-01T08:12:43;101383.72;;;4.79;60.53
43071;BME280;36278;47.952;21.714;2023-03-01T08:15:09;101388.88;;;4.82;61.18
43071;BME280;36278;47.952;21.714;2023-03-01T08:17:35;101379.63;;;4.95;59.73
43071;BME280;36278;47.952;21.714;2023-03-01T08:20:00;101387.44;;;4.98;59.80
43071;BME280;36278;47.952;21.714;2023-03-01T08:22:26;101392.94;;;5.16;59.02
43071;BME280;36278;47.952;21.714;2023-03-01T08:24:52;101380.38;;;5.24;58.20
43071;BME280;36278;47.952;21.714;2023-03-01T08:27:17;101372.44;;;5.25;59.07
43071;BME280;36278;47.952;21.714;2023-03-01T08:29:43;101367.06;;;5.28;59.05
43071;BME280;36278;47.952;21.714;2023-03-01T08:32:09;101366.25;;;5.26;58.76
43071;BME280;36278;47.952;21.714;2023-03-01T08:34:34;101354.09;;;5.24;58.34
43071;BME280;36278;47.952;21.714;2023-03-01T08:37:01;101357.88;;;5.40;58.60
43071;BME280;36278;47.952;21.714;2023-03-01T08:39:26;101355.13;;;5.43;58.23
43071;BME280;36278;47.952;21.714;2023-03-01T08:41:52;101359.09;;;5.53;57.51
43071;BME280;36278;47.952;21.714;2023-03-01T08:44:18;101360.22;;;5.70;58.44
43071;BME280;36278;47.952;21.714;2023-03-01T08:46:45;101354.66;;;5.77;57.99
43071;BME280;36278;47.952;21.714;2023-03-01T08:49:13;101349.41;;;5.77;57.88
43071;BME280;36278;47.952;21.714;2023-03-01T08:51:40;101353.88;;;5.99;57.30
43071;BME280;36278;47.952;21.714;2023-03-01T08:54:11;101345.13;;;5.98;57.30
43071;BME280;36278;47.952;21.714;2023-03-01T08:56:37;101346.69;;;6.02;58.24
43071;BME280;36278;47.952;21.714;2023-03-01T08:59:03;101344.66;;;6.31;56.74
43071;BME280;36278;47.952;21.714;2023-03-01T09:01:28;101339.25;;;6.34;56.57
43071;BME280;36278;47.952;21.714;2023-03-01T09:03:54;101338.22;;;6.38;56.73
43071;BME280;36278;47.952;21.714;2023-03-01T09:06:20;101335.28;;;6.45;56.91
43071;BME280;36278;47.952;21.714;2023-03-01T09:08:47;101340.75;;;6.61;56.68
43071;BME280;36278;47.952;21.714;2023-03-01T09:11:15;101339.88;;;6.81;56.07
43071;BME280;36278;47.952;21.714;2023-03-01T09:13:42;101337.06;;;6.86;55.71
43071;BME280;36278;47.952;21.714;2023-03-01T09:16:08;101328.81;;;6.93;55.27
43071;BME280;36278;47.952;21.714;2023-03-01T09:18:35;101334.25;;;7.09;55.34
43071;BME280;36278;47.952;21.714;2023-03-01T09:21:15;101329.34;;;7.20;54.94
43071;BME280;36278;47.952;21.714;2023-03-01T09:23:43;101321.34;;;7.22;55.19
43071;BME280;36278;47.952;21.714;2023-03-01T09:26:11;101325.53;;;7.07;54.96
43071;BME280;36278;47.952;21.714;2023-03-01T09:28:37;101319.25;;;6.91;56.27
43071;BME280;36278;47.952;21.714;2023-03-01T09:31:03;101313.72;;;6.97;56.53
43071;BME280;36278;47.952;21.714;2023-03-01T09:33:31;101312.09;;;7.13;56.47
43071;BME280;36278;47.952;21.714;2023-03-01T09:36:03;101310.81;;;7.41;56.02
43071;BME280;36278;47.952;21.714;2023-03-01T09:38:30;101298.13;;;7.68;53.98
43071;BME280;36278;47.952;21.714;2023-03-01T09:40:56;101312.47;;;7.98;53.61
43071;BME280;36278;47.952;21.714;2023-03-01T09:43:24;101294.41;;;7.72;53.65
43071;BME280;36278;47.952;21.714;2023-03-01T09:45:53;101300.16;;;7.80;54.67
43071;BME280;36278;47.952;21.714;2023-03-01T09:48:22;101296.19;;;8.07;54.18
43071;BME280;36278;47.952;21.714;2023-03-01T09:50:49;101288.19;;;8.26;53.90
43071;BME280;36278;47.952;21.714;2023-03-01T09:53:18;101284.41;;;8.32;53.15
43071;BME280;36278;47.952;21.714;2023-03-01T09:56:15;101286.75;;;8.38;52.77
43071;BME280;36278;47.952;21.714;2023-03-01T09:58:48;101276.66;;;8.63;52.66
43071;BME280;36278;47.952;21.714;2023-03-01T10:01:29;101273.56;;;8.71;52.17
43071;BME280;36278;47.952;21.714;2023-03-01T10:07:13;101264.16;;;8.83;51.64
43071;BME280;36278;47.952;21.714;2023-03-01T10:09:45;101263.44;;;8.96;52.13
43071;BME280;36278;47.952;21.714;2023-03-01T10:12:15;101263.78;;;9.06;51.50
43071;BME280;36278;47.952;21.714;2023-03-01T10:20:23;101258.63;;;8.87;51.68
43071;BME280;36278;47.952;21.714;2023-03-01T10:22:50;101245.66;;;8.83;50.50
43071;BME280;36278;47.952;21.714;2023-03-01T10:25:41;101242.94;;;8.84;51.83
43071;BME280;36278;47.952;21.714;2023-03-01T10:28:16;101242.53;;;8.92;50.69
43071;BME280;36278;47.952;21.714;2023-03-01T10:30:43;101226.56;;;8.78;50.51
43071;BME280;36278;47.952;21.714;2023-03-01T10:33:31;101217.72;;;9.10;50.89
43071;BME280;36278;47.952;21.714;2023-03-01T10:36:01;101219.19;;;9.16;51.14
43071;BME280;36278;47.952;21.714;2023-03-01T10:38:30;101227.97;;;9.32;49.23
43071;BME280;36278;47.952;21.714;2023-03-01T10:41:04;101220.34;;;9.58;49.28
43071;BME280;36278;47.952;21.714;2023-03-01T10:43:49;101205.09;;;9.47;48.87
43071;BME280;36278;47.952;21.714;2023-03-01T10:46:28;101216.06;;;9.71;48.52
43071;BME280;36278;47.952;21.714;2023-03-01T10:49:22;101211.75;;;9.84;48.06
43071;BME280;36278;47.952;21.714;2023-03-01T10:51:50;101207.56;;;9.96;47.16
43071;BME280;36278;47.952;21.714;2023-03-01T10:54:27;101200.47;;;9.96;47.43
43071;BME280;36278;47.952;21.714;2023-03-01T10:56:59;101196.44;;;10.05;47.76
43071;BME280;36278;47.952;21.714;2023-03-01T11:05:03;101190.94;;;10.08;47.93
43071;BME280;36278;47.952;21.714;2023-03-01T11:07:49;101186.19;;;10.29;47.64
43071;BME280;36278;47.952;21.714;2023-03-01T11:10:20;101187.44;;;10.52;47.22
43071;BME280;36278;47.952;21.714;2023-03-01T11:12:45;101186.75;;;10.34;47.10
43071;BME280;36278;47.952;21.714;2023-03-01T11:15:24;101174.66;;;10.44;46.91
43071;BME280;36278;47.952;21.714;2023-03-01T11:17:50;101170.22;;;10.59;46.33
43071;BME280;36278;47.952;21.714;2023-03-01T11:22:54;101164.25;;;10.84;45.91
43071;BME280;36278;47.952;21.714;2023-03-01T11:25:25;101148.09;;;11.01;45.85
43071;BME280;36278;47.952;21.714;2023-03-01T11:27:51;101154.88;;;11.19;44.90
43071;BME280;36278;47.952;21.714;2023-03-01T11:30:51;101153.09;;;11.60;44.63
43071;BME280;36278;47.952;21.714;2023-03-01T11:38:41;101146.63;;;12.03;43.64
43071;BME280;36278;47.952;21.714;2023-03-01T11:41:16;101142.81;;;12.07;44.10
43071;BME280;36278;47.952;21.714;2023-03-01T11:49:29;101136.00;;;11.91;43.79
43071;BME280;36278;47.952;21.714;2023-03-01T11:58:12;101130.75;;;12.53;42.45
43071;BME280;36278;47.952;21.714;2023-03-01T12:12:16;101113.31;;;12.98;41.82
43071;BME280;36278;47.952;21.714;2023-03-01T12:18:03;101114.19;;;13.46;40.29
43071;BME280;36278;47.952;21.714;2023-03-01T12:20:51;101109.50;;;14.08;39.78
43071;BME280;36278;47.952;21.714;2023-03-01T12:26:30;101098.34;;;12.84;42.66
43071;BME280;36278;47.952;21.714;2023-03-01T12:29:24;101090.72;;;12.80;42.75
43071;BME280;36278;47.952;21.714;2023-03-01T12:32:03;101093.50;;;13.02;42.57
43071;BME280;36278;47.952;21.714;2023-03-01T12:40:28;101085.78;;;13.23;39.69
43071;BME280;36278;47.952;21.714;2023-03-01T12:48:37;101066.66;;;14.55;39.68
43071;BME280;36278;47.952;21.714;2023-03-01T12:51:09;101059.19;;;15.25;37.05
43071;BME280;36278;47.952;21.714;2023-03-01T12:53:57;101050.41;;;15.55;36.49
43071;BME280;36278;47.952;21.714;2023-03-01T12:56:28;101051.47;;;15.63;36.36
43071;BME280;36278;47.952;21.714;2023-03-01T12:59:26;101044.81;;;15.58;37.51
43071;BME280;36278;47.952;21.714;2023-03-01T13:02:08;101047.34;;;15.59;36.89
43071;BME280;36278;47.952;21.714;2023-03-01T13:04:45;101042.13;;;15.37;36.74
43071;BME280;36278;47.952;21.714;2023-03-01T13:10:05;101032.72;;;14.90;37.85
43071;BME280;36278;47.952;21.714;2023-03-01T13:13:02;101031.56;;;14.82;37.92
43071;BME280;36278;47.952;21.714;2023-03-01T13:15:32;101023.91;;;15.42;36.58
43071;BME280;36278;47.952;21.714;2023-03-01T13:31:07;101030.53;;;15.27;36.26
43071;BME280;36278;47.952;21.714;2023-03-01T13:33:49;101028.34;;;15.74;35.82
43071;BME280;36278;47.952;21.714;2023-03-01T13:36:45;101031.63;;;15.45;36.14
43071;BME280;36278;47.952;21.714;2023-03-01T13:39:27;101023.06;;;15.41;36.49
43071;BME280;36278;47.952;21.714;2023-03-01T13:41:55;101028.00;;;14.93;37.52
43071;BME280;36278;47.952;21.714;2023-03-01T13:44:36;101023.00;;;14.68;36.90
43071;BME280;36278;47.952;21.714;2023-03-01T13:49:48;101020.84;;;14.50;37.25
43071;BME280;36278;47.952;21.714;2023-03-01T13:54:50;101011.53;;;14.22;38.64
43071;BME280;36278;47.952;21.714;2023-03-01T13:57:21;101007.13;;;14.44;38.18
43071;BME280;36278;47.952;21.714;2023-03-01T13:59:49;101010.63;;;14.67;37.69
43071;BME280;36278;47.952;21.714;2023-03-01T14:02:14;101011.22;;;14.70;38.27
43071;BME280;36278;47.952;21.714;2023-03-01T14:04:40;101010.16;;;15.47;37.15
43071;BME280;36278;47.952;21.714;2023-03-01T14:07:17;101005.78;;;17.45;34.21
43071;BME280;36278;47.952;21.714;2023-03-01T14:09:45;100992.03;;;18.42;33.20
43071;BME280;36278;47.952;21.714;2023-03-01T14:15:22;100993.03;;;18.13;33.90
43071;BME280;36278;47.952;21.714;2023-03-01T14:20:26;100985.44;;;18.36;33.94
43071;BME280;36278;47.952;21.714;2023-03-01T14:22:55;100984.09;;;17.95;34.65
43071;BME280;36278;47.952;21.714;2023-03-01T14:25:22;100982.44;;;17.84;34.35
43071;BME280;36278;47.952;21.714;2023-03-01T14:30:38;100998.47;;;16.99;35.46
43071;BME280;36278;47.952;21.714;2023-03-01T14:33:27;101001.19;;;16.30;36.67
43071;BME280;36278;47.952;21.714;2023-03-01T14:36:01;101002.19;;;16.48;36.36
43071;BME280;36278;47.952;21.714;2023-03-01T14:38:46;101004.59;;;16.51;36.22
43071;BME280;36278;47.952;21.714;2023-03-01T14:41:18;100996.38;;;16.23;36.93
43071;BME280;36278;47.952;21.714;2023-03-01T14:43:49;100993.38;;;16.17;37.29
43071;BME280;36278;47.952;21.714;2023-03-01T14:46:24;100995.31;;;16.65;36.87
43071;BME280;36278;47.952;21.714;2023-03-01T14:48:53;100994.03;;;16.59;36.85